Time;durP1;ratioP1;P1;durP2;ratioP2;P2;SDS_P1;SDS_P2;PMS_P1;PMS_P2;Temp;Humidity;BMP_temperature;BMP_pressure;BME280_temperature;BME280_humidity;BME280_pressure;Samples;Min_cycle;Max_cycle;Signal;HPM_P1;HPM_P2
2021/01/19 00:01:50;;;;;;;6.23;3.83;;;2.50;99.90;;;;;;5059906;28;20519;-73
2021/01/19 00:04:18;;;;;;;4.03;3.40;;;2.50;99.90;;;;;;5060649;28;20430;-73
2021/01/19 00:06:46;;;;;;;6.67;3.40;;;2.50;99.90;;;;;;5059418;28;20439;-76
2021/01/19 00:09:14;;;;;;;6.97;2.77;;;2.50;99.90;;;;;;5078115;28;20422;-74
2021/01/19 00:11:41;;;;;;;4.83;3.03;;;2.50;99.90;;;;;;5077562;28;20971;-73
2021/01/19 00:14:09;;;;;;;5.37;4.87;;;2.50;99.90;;;;;;5066022;28;20493;-74
2021/01/19 00:16:36;;;;;;;5.80;3.20;;;2.40;99.90;;;;;;5094364;28;20428;-74
2021/01/19 00:19:04;;;;;;;6.73;3.80;;;2.40;99.90;;;;;;5079845;28;20415;-74
2021/01/19 00:21:32;;;;;;;6.00;2.67;;;2.30;99.90;;;;;;5077566;28;20932;-76
2021/01/19 00:24:01;;;;;;;5.97;3.40;;;2.30;99.90;;;;;;5077032;28;20426;-73
2021/01/19 00:26:28;;;;;;;8.60;3.13;;;2.30;99.90;;;;;;5077093;28;20430;-73
2021/01/19 00:28:55;;;;;;;6.50;3.73;;;2.40;99.90;;;;;;5076848;28;20468;-75
2021/01/19 00:31:23;;;;;;;5.23;3.70;;;2.30;99.90;;;;;;5058028;28;20461;-73
2021/01/19 00:33:50;;;;;;;5.87;2.80;;;2.30;99.90;;;;;;5059375;28;20413;-73
2021/01/19 00:36:18;;;;;;;5.43;3.67;;;2.30;99.90;;;;;;5077397;28;20483;-75
2021/01/19 00:38:45;;;;;;;4.13;2.70;;;2.30;99.90;;;;;;5059093;28;21011;-75
2021/01/19 00:41:12;;;;;;;8.67;4.27;;;2.30;99.90;;;;;;5059577;28;20461;-75
2021/01/19 00:43:40;;;;;;;3.23;2.43;;;2.30;99.90;;;;;;5058631;28;20430;-73
2021/01/19 00:46:07;;;;;;;4.30;3.53;;;2.30;99.90;;;;;;5075751;28;20575;-73
2021/01/19 00:48:34;;;;;;;3.57;3.07;;;2.20;99.90;;;;;;5058456;28;20461;-73
2021/01/19 00:51:01;;;;;;;6.90;3.03;;;2.10;99.90;;;;;;5058361;28;20412;-75
2021/01/19 00:53:31;;;;;;;3.73;2.73;;;2.20;99.90;;;;;;5074438;28;20438;-73
2021/01/19 00:55:59;;;;;;;5.07;3.53;;;2.30;99.90;;;;;;5069600;28;20481;-73
2021/01/19 00:58:26;;;;;;;2.73;2.53;;;2.30;99.90;;;;;;5059104;28;20457;-72
2021/01/19 01:00:55;;;;;;;6.87;3.57;;;2.30;99.90;;;;;;5057948;28;20552;-77
2021/01/19 01:03:22;;;;;;;3.20;2.87;;;2.10;99.90;;;;;;5077101;28;20858;-74
2021/01/19 01:05:50;;;;;;;3.53;2.20;;;2.10;99.90;;;;;;5077279;28;20429;-73
2021/01/19 01:08:17;;;;;;;4.03;2.77;;;2.10;99.90;;;;;;5077537;28;20452;-73
2021/01/19 01:10:46;;;;;;;3.43;2.90;;;2.20;99.90;;;;;;5061323;28;20430;-74
2021/01/19 01:13:13;;;;;;;8.73;2.90;;;2.20;99.90;;;;;;5059936;28;20437;-76
2021/01/19 01:15:41;;;;;;;3.27;2.87;;;2.20;99.90;;;;;;5077397;28;20441;-74
2021/01/19 01:18:12;;;;;;;5.80;2.97;;;2.20;99.90;;;;;;5059830;28;20469;-77
2021/01/19 01:23:33;;;;;;;3.33;2.63;;;2.20;99.90;;;;;;5060341;28;20800;-73
2021/01/19 01:26:01;;;;;;;4.60;3.00;;;2.20;99.90;;;;;;5078563;28;20432;-73
2021/01/19 01:28:29;;;;;;;5.37;3.73;;;2.20;99.90;;;;;;5060020;28;20438;-76
2021/01/19 01:30:57;;;;;;;2.90;2.60;;;2.20;99.90;;;;;;5077311;28;20445;-74
2021/01/19 01:33:24;;;;;;;7.20;2.37;;;2.20;99.90;;;;;;5078803;28;20469;-73
2021/01/19 01:35:52;;;;;;;5.30;2.80;;;2.20;99.90;;;;;;5078052;28;20813;-73
2021/01/19 01:38:19;;;;;;;4.97;2.30;;;2.30;99.90;;;;;;5058410;28;20511;-76
2021/01/19 01:40:46;;;;;;;4.00;2.60;;;2.20;99.90;;;;;;5075667;28;20469;-77
2021/01/19 01:43:15;;;;;;;3.10;2.77;;;2.10;99.90;;;;;;5075517;28;20445;-74
2021/01/19 01:45:42;;;;;;;4.77;2.53;;;2.10;99.90;;;;;;5076208;28;20537;-74
2021/01/19 01:48:10;;;;;;;3.20;2.50;;;2.20;99.90;;;;;;5074631;28;20996;-76
2021/01/19 01:50:39;;;;;;;3.40;2.93;;;2.20;99.90;;;;;;5057526;28;20796;-77
2021/01/19 01:53:07;;;;;;;3.87;2.70;;;2.10;99.90;;;;;;5057564;28;20955;-73
2021/01/19 01:55:35;;;;;;;4.30;2.97;;;2.10;99.90;;;;;;5074696;28;20572;-74
2021/01/19 01:58:03;;;;;;;3.70;2.80;;;2.10;99.90;;;;;;5057347;28;20447;-73
2021/01/19 02:00:31;;;;;;;4.50;2.60;;;2.10;99.90;;;;;;5056780;28;20570;-75
2021/01/19 02:02:59;;;;;;;6.37;3.03;;;2.20;99.90;;;;;;5074886;28;20464;-74
2021/01/19 02:05:27;;;;;;;7.50;2.90;;;2.10;99.90;;;;;;5061745;28;20434;-73
2021/01/19 02:08:05;;;;;;;2.37;2.07;;;2.10;99.90;;;;;;5093204;28;20433;-74
2021/01/19 02:10:43;;;;;;;3.23;2.70;;;2.20;99.90;;;;;;5075870;28;20901;-74
2021/01/19 02:13:16;;;;;;;3.23;2.37;;;2.20;99.90;;;;;;5056611;28;20524;-73
2021/01/19 02:15:48;;;;;;;2.20;1.80;;;2.20;99.90;;;;;;5074042;28;20433;-74
2021/01/19 02:18:28;;;;;;;4.43;2.40;;;2.20;99.90;;;;;;5075006;28;20506;-75
2021/01/19 02:21:34;;;;;;;3.67;3.00;;;2.20;99.90;;;;;;5057226;28;20491;-74
2021/01/19 02:24:10;;;;;;;4.23;2.33;;;2.10;99.90;;;;;;5074174;28;20948;-73
2021/01/19 02:26:57;;;;;;;3.63;3.03;;;2.10;99.90;;;;;;5057117;28;20528;-73
2021/01/19 02:29:54;;;;;;;5.37;3.10;;;2.10;99.90;;;;;;5074974;28;20432;-74
2021/01/19 02:32:30;;;;;;;3.20;2.27;;;2.10;99.90;;;;;;5074706;28;20921;-74
2021/01/19 02:35:04;;;;;;;3.90;2.70;;;2.10;99.90;;;;;;5075422;28;20510;-74
2021/01/19 02:37:37;;;;;;;2.63;2.30;;;2.10;99.90;;;;;;5044113;28;20529;-73
2021/01/19 02:40:07;;;;;;;4.60;2.40;;;2.10;99.90;;;;;;5057369;28;20523;-73
2021/01/19 02:42:41;;;;;;;5.40;2.67;;;2.20;99.90;;;;;;5056813;28;20434;-75
2021/01/19 02:45:10;;;;;;;2.83;2.27;;;2.10;99.90;;;;;;5056712;28;20430;-73
2021/01/19 02:47:39;;;;;;;4.83;2.40;;;2.10;99.90;;;;;;5057191;28;20461;-77
2021/01/19 02:50:08;;;;;;;4.30;2.30;;;2.10;99.90;;;;;;5075019;28;20441;-74
2021/01/19 02:52:38;;;;;;;2.23;2.03;;;2.00;99.90;;;;;;5074755;28;20463;-77
2021/01/19 02:55:12;;;;;;;5.70;2.97;;;2.00;99.90;;;;;;5052851;28;20576;-73
2021/01/19 02:58:03;;;;;;;5.10;2.60;;;2.10;99.90;;;;;;5047406;28;20964;-77
2021/01/19 03:00:44;;;;;;;4.70;3.53;;;2.00;99.90;;;;;;5053911;28;20875;-74
2021/01/19 03:03:15;;;;;;;4.20;1.87;;;2.00;99.90;;;;;;5052689;28;20466;-73
2021/01/19 03:05:44;;;;;;;9.10;2.70;;;1.90;99.90;;;;;;5036411;28;20478;-74
2021/01/19 03:08:14;;;;;;;5.87;2.60;;;2.00;99.90;;;;;;5036618;28;20518;-78
2021/01/19 03:10:43;;;;;;;3.80;2.23;;;1.90;99.90;;;;;;5054803;28;20434;-77
2021/01/19 03:13:13;;;;;;;2.40;1.93;;;1.80;99.90;;;;;;5054675;28;20533;-74
2021/01/19 03:15:41;;;;;;;6.83;2.30;;;1.80;99.90;;;;;;5053117;28;20438;-75
2021/01/19 03:18:10;;;;;;;3.30;1.67;;;1.70;99.90;;;;;;5057945;28;20495;-76
2021/01/19 03:20:39;;;;;;;2.27;1.60;;;1.60;99.90;;;;;;5060182;28;20469;-75
2021/01/19 03:23:07;;;;;;;4.67;2.07;;;1.60;99.90;;;;;;5065989;28;20442;-74
2021/01/19 03:25:35;;;;;;;3.30;2.23;;;1.60;99.90;;;;;;5068492;28;20430;-75
2021/01/19 03:28:03;;;;;;;4.53;1.80;;;1.50;99.90;;;;;;5060068;28;20461;-73
2021/01/19 03:30:30;;;;;;;3.40;2.23;;;1.60;99.90;;;;;;5057494;28;20602;-77
2021/01/19 03:32:57;;;;;;;3.33;2.43;;;1.50;99.90;;;;;;5039258;28;20471;-74
2021/01/19 03:35:25;;;;;;;2.93;1.73;;;1.50;99.90;;;;;;5057691;28;20431;-73
2021/01/19 03:37:52;;;;;;;4.90;2.10;;;1.60;99.90;;;;;;5057467;28;21017;-76
2021/01/19 03:40:20;;;;;;;2.87;1.90;;;1.50;99.90;;;;;;5057733;28;20462;-74
2021/01/19 03:42:48;;;;;;;1.90;1.70;;;1.50;99.90;;;;;;5057227;28;20441;-74
2021/01/19 03:45:15;;;;;;;3.37;2.00;;;1.50;99.90;;;;;;5057699;28;20428;-74
2021/01/19 03:47:43;;;;;;;2.87;2.17;;;1.40;99.90;;;;;;5058134;28;20456;-76
2021/01/19 03:50:11;;;;;;;2.70;1.70;;;1.30;99.90;;;;;;5059772;28;20833;-73
2021/01/19 03:53:05;;;;;;;4.90;2.40;;;1.20;99.90;;;;;;5059117;28;20443;-76
2021/01/19 03:55:33;;;;;;;3.57;2.40;;;1.20;99.90;;;;;;5086726;28;20465;-73
2021/01/19 03:58:00;;;;;;;6.23;2.37;;;1.10;99.90;;;;;;5077431;28;20771;-74
2021/01/19 04:00:31;;;;;;;2.97;2.27;;;1.10;99.90;;;;;;5077861;28;20476;-78
2021/01/19 04:02:59;;;;;;;4.50;2.30;;;1.10;99.90;;;;;;5077252;28;20542;-75
2021/01/19 04:05:26;;;;;;;4.03;2.93;;;1.00;99.90;;;;;;5077116;28;20471;-73
2021/01/19 04:07:54;;;;;;;3.80;1.97;;;1.00;99.90;;;;;;5077059;28;20469;-73
2021/01/19 04:10:22;;;;;;;2.70;2.03;;;1.00;99.90;;;;;;5077263;28;20427;-76
2021/01/19 04:12:50;;;;;;;2.33;1.83;;;1.00;99.90;;;;;;5059206;28;20434;-73
2021/01/19 04:15:18;;;;;;;1.97;1.83;;;0.90;99.90;;;;;;5076599;28;20908;-76
2021/01/19 04:17:45;;;;;;;3.83;2.10;;;0.80;99.90;;;;;;5042786;28;20458;-74
2021/01/19 04:20:12;;;;;;;3.30;2.77;;;0.80;99.90;;;;;;5077237;28;20559;-77
2021/01/19 04:22:40;;;;;;;2.70;2.10;;;0.80;99.90;;;;;;5077513;28;20552;-77
2021/01/19 04:25:09;;;;;;;2.20;1.70;;;0.80;99.90;;;;;;5051410;28;20429;-76
2021/01/19 04:27:37;;;;;;;2.80;2.53;;;0.90;99.90;;;;;;5069646;28;20465;-74
2021/01/19 04:30:08;;;;;;;4.17;2.40;;;0.80;99.90;;;;;;5087714;28;20519;-74
2021/01/19 04:32:38;;;;;;;4.60;2.73;;;0.70;99.90;;;;;;5087622;28;20488;-73
2021/01/19 04:35:06;;;;;;;2.57;1.80;;;0.70;99.90;;;;;;5088382;28;20844;-75
2021/01/19 04:37:33;;;;;;;3.17;2.10;;;0.70;99.90;;;;;;5071585;28;20445;-74
2021/01/19 04:40:04;;;;;;;2.37;2.17;;;0.60;99.90;;;;;;5086727;28;20449;-77
2021/01/19 04:42:33;;;;;;;4.80;2.33;;;0.70;99.90;;;;;;5088434;28;20460;-78
2021/01/19 04:45:04;;;;;;;3.37;1.83;;;0.80;99.90;;;;;;5055594;28;20446;-73
2021/01/19 04:47:32;;;;;;;3.60;1.73;;;0.80;99.90;;;;;;5059832;28;20560;-74
2021/01/19 04:50:02;;;;;;;3.03;2.70;;;0.70;99.90;;;;;;5077481;28;20429;-74
2021/01/19 04:52:31;;;;;;;5.57;2.00;;;0.80;99.90;;;;;;5077279;28;20932;-74
2021/01/19 04:55:05;;;;;;;4.83;2.27;;;0.90;99.90;;;;;;5076181;28;20549;-74
2021/01/19 04:57:34;;;;;;;2.83;2.00;;;0.80;99.90;;;;;;5076489;28;20440;-74
2021/01/19 05:00:09;;;;;;;5.60;1.90;;;0.80;99.90;;;;;;5076092;28;20625;-76
2021/01/19 05:03:13;;;;;;;2.93;2.33;;;0.70;99.90;;;;;;5058338;28;20473;-74
2021/01/19 05:06:12;;;;;;;4.17;2.07;;;0.80;99.90;;;;;;5076562;28;20741;-76
2021/01/19 05:08:58;;;;;;;3.83;2.33;;;0.90;99.90;;;;;;5076440;28;20524;-77
2021/01/19 05:11:29;;;;;;;3.13;2.50;;;1.00;99.90;;;;;;5062415;28;20421;-73
2021/01/19 05:13:59;;;;;;;2.40;1.87;;;1.10;99.90;;;;;;5093690;28;20453;-74
2021/01/19 05:16:31;;;;;;;1.87;1.60;;;1.20;99.90;;;;;;5058480;28;20499;-74
2021/01/19 05:18:59;;;;;;;3.73;3.20;;;1.10;99.90;;;;;;5076224;28;20974;-74
2021/01/19 05:21:27;;;;;;;4.30;2.10;;;1.10;99.90;;;;;;5057886;28;20562;-77
2021/01/19 05:23:56;;;;;;;3.00;2.00;;;1.10;99.90;;;;;;5058037;28;20922;-76
2021/01/19 05:26:24;;;;;;;2.10;1.90;;;1.10;99.90;;;;;;5058413;28;20444;-74
2021/01/19 05:28:54;;;;;;;4.53;2.00;;;1.10;99.90;;;;;;5075823;28;20441;-76
2021/01/19 05:31:27;;;;;;;4.30;2.13;;;1.00;99.90;;;;;;5074890;28;20473;-73
2021/01/19 05:34:14;;;;;;;3.53;2.10;;;1.00;99.90;;;;;;5057576;28;20520;-74
2021/01/19 05:36:44;;;;;;;2.70;2.00;;;1.10;99.90;;;;;;5075418;28;20437;-74
2021/01/19 05:39:14;;;;;;;3.47;2.40;;;1.10;99.90;;;;;;5057097;28;20964;-74
2021/01/19 05:41:44;;;;;;;3.63;2.43;;;1.10;99.90;;;;;;5075262;28;20465;-74
2021/01/19 05:44:29;;;;;;;2.40;2.20;;;1.20;99.90;;;;;;5076164;28;20507;-73
2021/01/19 05:47:02;;;;;;;6.00;2.57;;;1.30;99.90;;;;;;5084840;28;20532;-73
2021/01/19 05:49:32;;;;;;;2.73;2.20;;;1.30;99.90;;;;;;5071196;28;20430;-75
2021/01/19 05:52:04;;;;;;;4.93;2.53;;;1.30;99.90;;;;;;5076473;28;20480;-74
2021/01/19 05:54:33;;;;;;;3.47;2.87;;;1.20;99.90;;;;;;5039850;28;20473;-74
2021/01/19 05:57:06;;;;;;;4.22;2.38;;;1.20;99.90;;;;;;5034201;28;20437;-73
2021/01/19 05:59:37;;;;;;;3.33;2.10;;;1.20;99.90;;;;;;5036426;28;20250;-77
2021/01/19 06:02:07;;;;;;;2.70;1.90;;;1.10;99.90;;;;;;5016901;28;20610;-77
2021/01/19 06:04:41;;;;;;;7.23;2.70;;;1.10;99.90;;;;;;5035165;28;20438;-77
2021/01/19 06:07:11;;;;;;;2.40;2.20;;;1.10;99.90;;;;;;5036014;28;20922;-76
2021/01/19 06:09:40;;;;;;;5.20;2.47;;;1.10;99.90;;;;;;5035626;28;20838;-76
2021/01/19 06:12:08;;;;;;;2.67;1.90;;;1.10;99.90;;;;;;5035549;28;20474;-74
2021/01/19 06:14:38;;;;;;;5.33;2.40;;;1.10;99.90;;;;;;5034252;28;20486;-75
2021/01/19 06:17:10;;;;;;;2.57;1.93;;;1.10;99.90;;;;;;5016366;28;20455;-75
2021/01/19 06:19:41;;;;;;;8.03;2.67;;;1.10;99.90;;;;;;5034953;28;20427;-74
2021/01/19 06:22:11;;;;;;;5.60;2.20;;;1.10;99.90;;;;;;5035145;28;20469;-73
2021/01/19 06:24:41;;;;;;;2.10;1.73;;;1.10;99.90;;;;;;5035433;28;20498;-78
2021/01/19 06:27:12;;;;;;;2.53;2.30;;;1.00;99.90;;;;;;5035030;28;20442;-73
2021/01/19 06:29:39;;;;;;;4.10;2.70;;;1.00;99.90;;;;;;5018399;28;20436;-73
2021/01/19 06:32:10;;;;;;;2.17;1.97;;;1.00;99.90;;;;;;5034013;28;20677;-73
2021/01/19 06:34:43;;;;;;;2.40;1.97;;;1.00;99.90;;;;;;5034936;28;20520;-78
2021/01/19 06:37:24;;;;;;;2.83;2.27;;;1.00;99.90;;;;;;5034750;28;20439;-77
2021/01/19 06:39:55;;;;;;;3.27;2.57;;;1.10;99.90;;;;;;5033535;28;21008;-73
2021/01/19 06:42:26;;;;;;;5.30;2.07;;;1.20;99.90;;;;;;5034852;28;20471;-74
2021/01/19 06:44:56;;;;;;;3.77;2.33;;;1.10;99.90;;;;;;5033344;28;20446;-74
2021/01/19 06:47:25;;;;;;;3.17;2.70;;;1.10;99.90;;;;;;5015997;28;20471;-73
2021/01/19 06:50:06;;;;;;;2.27;1.73;;;1.10;99.90;;;;;;5033425;28;20448;-73
2021/01/19 06:52:40;;;;;;;4.63;2.77;;;1.00;99.90;;;;;;5028455;28;20578;-73
2021/01/19 06:55:34;;;;;;;3.57;2.07;;;1.00;99.90;;;;;;5052212;28;20560;-73
2021/01/19 06:58:17;;;;;;;3.73;2.63;;;1.00;99.90;;;;;;5065190;28;20796;-73
2021/01/19 07:00:45;;;;;;;8.50;2.53;;;1.10;99.90;;;;;;5065370;28;20482;-72
2021/01/19 07:03:28;;;;;;;2.93;2.73;;;1.10;99.90;;;;;;5047467;28;20499;-73
2021/01/19 07:06:03;;;;;;;2.13;2.03;;;1.10;99.90;;;;;;5046581;28;20469;-73
2021/01/19 07:09:41;;;;;;;2.33;2.00;;;1.10;99.90;;;;;;5047943;28;20942;-73
2021/01/19 07:12:10;;;;;;;4.10;2.20;;;1.10;99.90;;;;;;5066242;28;20480;-74
2021/01/19 07:14:57;;;;;;;3.47;2.20;;;1.10;99.90;;;;;;5048134;28;20516;-75
2021/01/19 07:17:49;;;;;;;2.30;2.10;;;1.10;99.90;;;;;;5030272;28;20976;-73
2021/01/19 07:20:29;;;;;;;5.23;2.60;;;1.10;99.90;;;;;;5052944;28;20461;-73
2021/01/19 07:23:02;;;;;;;4.27;2.50;;;0.90;99.90;;;;;;5065686;28;21638;-73
2021/01/19 07:25:30;;;;;;;5.37;2.60;;;0.90;99.90;;;;;;5065914;28;20454;-72
2021/01/19 07:27:57;;;;;;;2.40;2.20;;;1.00;99.90;;;;;;5048274;28;20552;-72
2021/01/19 07:30:25;;;;;;;3.60;2.10;;;1.10;99.90;;;;;;5048494;28;20514;-73
2021/01/19 07:32:55;;;;;;;8.27;3.27;;;1.20;99.90;;;;;;5066017;28;20473;-73
2021/01/19 07:35:24;;;;;;;3.07;2.27;;;1.20;99.90;;;;;;5050774;28;20444;-72
2021/01/19 07:38:09;;;;;;;2.40;2.20;;;1.30;99.90;;;;;;5084066;28;20480;-73
2021/01/19 07:40:44;;;;;;;4.13;2.67;;;1.30;99.90;;;;;;5053835;28;20454;-73
2021/01/19 07:43:16;;;;;;;3.07;2.73;;;1.30;99.90;;;;;;5048304;28;20453;-73
2021/01/19 07:45:51;;;;;;;6.07;2.83;;;1.50;99.90;;;;;;5029809;28;20473;-73
2021/01/19 07:48:29;;;;;;;3.37;2.33;;;1.40;99.90;;;;;;5053706;28;20536;-73
2021/01/19 07:50:57;;;;;;;4.60;2.87;;;1.40;99.90;;;;;;5050361;28;20464;-73
2021/01/19 07:53:26;;;;;;;3.40;2.50;;;1.50;99.90;;;;;;5065264;28;20454;-72
2021/01/19 07:55:55;;;;;;;2.50;1.97;;;1.40;99.90;;;;;;5046540;28;20473;-73
2021/01/19 07:58:24;;;;;;;2.80;2.07;;;1.40;99.90;;;;;;5046949;28;20449;-72
2021/01/19 08:00:56;;;;;;;2.30;2.10;;;1.50;99.90;;;;;;5063492;28;20611;-73
2021/01/19 08:03:28;;;;;;;2.33;2.10;;;1.40;99.90;;;;;;5064639;28;20453;-73
2021/01/19 08:06:13;;;;;;;5.10;2.23;;;1.50;99.90;;;;;;5063372;28;20454;-73
2021/01/19 08:08:42;;;;;;;3.50;2.60;;;1.60;99.90;;;;;;5047715;28;20912;-73
2021/01/19 08:11:19;;;;;;;5.43;2.63;;;1.60;99.90;;;;;;5050370;28;20449;-73
2021/01/19 08:14:05;;;;;;;3.10;2.30;;;1.60;99.90;;;;;;5068903;28;20456;-73
2021/01/19 08:16:36;;;;;;;4.30;2.63;;;1.70;99.90;;;;;;5032563;28;20487;-73
2021/01/19 08:19:06;;;;;;;2.47;2.27;;;1.70;99.90;;;;;;5033745;28;20472;-74
2021/01/19 08:21:36;;;;;;;5.27;3.40;;;1.70;99.90;;;;;;5049700;28;20962;-72
2021/01/19 08:24:06;;;;;;;3.07;2.30;;;1.70;99.90;;;;;;5050059;28;20463;-73
2021/01/19 08:26:35;;;;;;;5.03;2.50;;;1.70;99.90;;;;;;5049629;28;20457;-73
2021/01/19 08:29:03;;;;;;;2.90;2.20;;;1.80;99.90;;;;;;5066579;28;20483;-75
2021/01/19 08:31:32;;;;;;;3.07;2.10;;;1.80;99.90;;;;;;5067568;28;20885;-73
2021/01/19 08:34:01;;;;;;;2.90;2.40;;;1.80;99.90;;;;;;5050570;28;20914;-73
2021/01/19 08:36:29;;;;;;;3.53;2.17;;;1.90;99.90;;;;;;5069131;28;20815;-74
2021/01/19 08:38:58;;;;;;;2.53;2.27;;;2.00;99.90;;;;;;5067900;28;20459;-72
2021/01/19 08:41:27;;;;;;;4.50;2.77;;;1.80;99.90;;;;;;5050312;28;20973;-74
2021/01/19 08:44:00;;;;;;;2.63;1.87;;;2.00;99.90;;;;;;5051012;28;20452;-74
2021/01/19 08:46:29;;;;;;;2.00;1.80;;;2.10;99.90;;;;;;5068787;28;20453;-72
2021/01/19 08:49:01;;;;;;;2.23;2.03;;;2.00;99.90;;;;;;5050474;28;20472;-72
2021/01/19 08:51:29;;;;;;;3.53;2.60;;;1.90;99.90;;;;;;5050270;28;20464;-73
2021/01/19 08:53:57;;;;;;;5.77;2.70;;;1.70;99.90;;;;;;5049759;28;20545;-72
2021/01/19 08:56:27;;;;;;;2.77;2.30;;;1.60;99.90;;;;;;5050211;28;20465;-74
2021/01/19 08:58:55;;;;;;;2.80;2.50;;;1.80;99.90;;;;;;5068316;28;20545;-72
2021/01/19 09:01:23;;;;;;;2.93;2.10;;;2.00;99.90;;;;;;5049414;28;20605;-73
2021/01/19 09:03:55;;;;;;;6.90;2.20;;;2.00;99.90;;;;;;5068924;28;20481;-73
2021/01/19 09:06:25;;;;;;;4.43;2.40;;;1.80;99.90;;;;;;5039389;28;20563;-74
2021/01/19 09:08:56;;;;;;;2.97;1.90;;;2.00;99.90;;;;;;5070520;28;20483;-72
2021/01/19 09:11:29;;;;;;;3.37;2.60;;;2.00;99.90;;;;;;5067701;28;20453;-74
2021/01/19 09:14:06;;;;;;;3.67;2.47;;;2.20;99.90;;;;;;5049743;28;20502;-73
2021/01/19 09:16:36;;;;;;;3.53;2.37;;;2.10;99.90;;;;;;5048099;28;20572;-71
2021/01/19 09:19:07;;;;;;;5.33;2.57;;;2.20;99.90;;;;;;5067180;28;20449;-72
2021/01/19 09:21:37;;;;;;;4.60;2.70;;;2.40;99.90;;;;;;5048872;28;21229;-73
2021/01/19 09:24:13;;;;;;;2.30;2.00;;;2.50;99.90;;;;;;5048660;28;20465;-73
2021/01/19 09:26:56;;;;;;;3.57;2.60;;;2.90;99.90;;;;;;5075553;28;20467;-73
2021/01/19 09:29:26;;;;;;;3.03;2.80;;;3.10;99.90;;;;;;5056997;28;20526;-73
2021/01/19 09:31:54;;;;;;;3.50;2.80;;;3.30;99.90;;;;;;5047771;28;20481;-73
2021/01/19 09:34:22;;;;;;;7.40;3.00;;;3.30;99.90;;;;;;5047971;28;20469;-73
2021/01/19 09:36:49;;;;;;;2.60;2.37;;;3.40;99.90;;;;;;5048251;28;20455;-72
2021/01/19 09:39:24;;;;;;;4.40;2.73;;;3.30;99.90;;;;;;5048774;28;21088;-73
2021/01/19 09:41:54;;;;;;;3.47;2.50;;;3.20;99.90;;;;;;5047915;28;20583;-73
2021/01/19 09:44:23;;;;;;;3.87;2.43;;;3.30;99.90;;;;;;5066123;28;20461;-73
2021/01/19 09:46:52;;;;;;;3.90;3.50;;;3.40;99.90;;;;;;5046759;28;20503;-73
2021/01/19 09:49:21;;;;;;;4.10;3.50;;;3.30;99.90;;;;;;5065969;28;20540;-74
2021/01/19 09:51:49;;;;;;;4.90;3.23;;;3.30;99.90;;;;;;5032423;28;20497;-73
2021/01/19 09:57:25;;;;;;;3.93;2.90;;;3.20;99.90;;;;;;5047711;28;20489;-73
2021/01/19 09:59:53;;;;;;;3.83;3.17;;;3.30;99.90;;;;;;5049149;28;20453;-73
2021/01/19 10:02:28;;;;;;;5.70;3.30;;;3.50;99.90;;;;;;5066176;28;20570;-73
2021/01/19 10:05:00;;;;;;;2.50;2.30;;;3.30;99.90;;;;;;5065599;28;20497;-73
2021/01/19 10:07:29;;;;;;;4.60;3.20;;;3.40;99.90;;;;;;5066376;28;20453;-73
2021/01/19 10:10:11;;;;;;;4.13;2.97;;;3.40;99.90;;;;;;5047684;28;20576;-73
2021/01/19 10:12:41;;;;;;;8.63;4.63;;;3.60;99.90;;;;;;5048086;28;21006;-73
2021/01/19 10:15:12;;;;;;;4.70;3.40;;;3.40;99.90;;;;;;5065441;28;20450;-73
2021/01/19 10:17:40;;;;;;;6.90;3.93;;;3.50;99.90;;;;;;5064951;28;20473;-73
2021/01/19 10:20:13;;;;;;;5.27;4.50;;;3.20;99.90;;;;;;5067782;28;20547;-73
2021/01/19 10:22:43;;;;;;;4.97;2.90;;;3.10;99.90;;;;;;5058950;28;20603;-73
2021/01/19 10:25:12;;;;;;;5.70;3.80;;;3.50;99.90;;;;;;5049824;28;20461;-73
2021/01/19 10:27:43;;;;;;;8.50;4.27;;;3.50;99.90;;;;;;5066358;28;20468;-74
2021/01/19 10:30:12;;;;;;;5.83;4.03;;;3.50;99.90;;;;;;5048043;28;20948;-73
2021/01/19 10:32:49;;;;;;;4.33;3.87;;;3.30;99.90;;;;;;5046984;28;20469;-73
2021/01/19 10:35:27;;;;;;;6.53;3.70;;;3.30;99.90;;;;;;5066410;28;20458;-73
2021/01/19 10:37:59;;;;;;;3.83;2.80;;;3.10;99.90;;;;;;5049111;28;20471;-73
2021/01/19 10:40:28;;;;;;;10.63;4.40;;;3.30;99.90;;;;;;5048638;28;20461;-73
2021/01/19 10:42:57;;;;;;;4.50;3.20;;;3.30;99.90;;;;;;5047601;28;20497;-73
2021/01/19 10:45:27;;;;;;;4.60;3.40;;;3.30;99.90;;;;;;5047083;28;20937;-73
2021/01/19 10:47:55;;;;;;;5.33;3.80;;;3.30;99.90;;;;;;5065163;28;20481;-74
2021/01/19 10:50:27;;;;;;;5.83;3.20;;;3.30;99.90;;;;;;5066481;28;20459;-74
2021/01/19 10:52:57;;;;;;;6.17;3.00;;;3.30;99.90;;;;;;5066607;28;20457;-73
2021/01/19 10:55:25;;;;;;;5.83;3.00;;;3.30;99.90;;;;;;5066353;28;20466;-73
2021/01/19 10:57:56;;;;;;;5.73;3.77;;;3.60;99.90;;;;;;5048331;28;21015;-73
2021/01/19 11:03:17;;;;;;;4.70;2.70;;;3.80;99.90;;;;;;5047905;28;20852;-72
2021/01/19 11:05:45;;;;;;;5.63;3.60;;;3.70;99.90;;;;;;5048486;28;20464;-72
2021/01/19 11:08:12;;;;;;;5.87;3.60;;;3.50;99.90;;;;;;5048445;28;20461;-74
2021/01/19 11:10:41;;;;;;;3.40;2.93;;;3.50;99.90;;;;;;5048854;28;20428;-72
2021/01/19 11:13:09;;;;;;;9.00;3.80;;;3.40;99.90;;;;;;5051189;28;20453;-73
2021/01/19 11:15:36;;;;;;;5.83;3.37;;;3.30;99.90;;;;;;5058067;28;20480;-74
2021/01/19 11:18:04;;;;;;;4.33;3.23;;;3.40;99.90;;;;;;5031492;28;20447;-73
2021/01/19 11:20:32;;;;;;;5.30;4.03;;;3.40;99.90;;;;;;5031146;28;20475;-73
2021/01/19 11:23:00;;;;;;;4.63;3.00;;;3.40;99.90;;;;;;5031348;28;20519;-73
2021/01/19 11:25:29;;;;;;;5.93;2.93;;;3.20;99.90;;;;;;5030835;28;20467;-73
2021/01/19 11:27:56;;;;;;;4.30;3.00;;;3.20;99.90;;;;;;5046359;28;20514;-73
2021/01/19 11:30:26;;;;;;;3.40;3.00;;;3.20;99.90;;;;;;5029745;28;20461;-74
2021/01/19 11:32:54;;;;;;;5.10;3.37;;;3.20;99.90;;;;;;5029706;28;20477;-73
2021/01/19 11:35:21;;;;;;;5.83;3.00;;;3.20;99.90;;;;;;5047246;28;20493;-73
2021/01/19 11:37:49;;;;;;;5.70;2.80;;;3.10;99.90;;;;;;5030797;28;20507;-74
2021/01/19 11:40:17;;;;;;;3.60;3.30;;;3.00;99.90;;;;;;5066227;28;20485;-74
2021/01/19 11:42:45;;;;;;;5.20;3.90;;;3.00;99.90;;;;;;5048489;28;20473;-73
2021/01/19 11:45:13;;;;;;;4.67;3.50;;;2.90;99.90;;;;;;5067513;28;20463;-74
2021/01/19 11:47:42;;;;;;;4.80;3.60;;;2.90;99.90;;;;;;5072473;28;20447;-73
2021/01/19 11:50:13;;;;;;;4.10;2.80;;;3.00;99.90;;;;;;5060882;28;20537;-73
2021/01/19 11:52:40;;;;;;;5.70;3.70;;;2.90;99.90;;;;;;5084350;28;20453;-74
2021/01/19 11:55:09;;;;;;;4.13;3.73;;;3.00;99.90;;;;;;5067315;28;20838;-73
2021/01/19 11:57:37;;;;;;;7.23;4.20;;;2.90;99.90;;;;;;5057879;28;20528;-73
2021/01/19 12:00:07;;;;;;;4.23;3.43;;;2.80;99.90;;;;;;5041583;28;20461;-73
2021/01/19 12:02:36;;;;;;;5.93;3.90;;;2.70;99.90;;;;;;5036337;28;20626;-73
2021/01/19 12:05:06;;;;;;;8.60;4.43;;;2.50;99.90;;;;;;5071135;28;20466;-74
2021/01/19 12:07:41;;;;;;;8.17;4.37;;;2.50;99.90;;;;;;5056155;28;20896;-73
2021/01/19 12:10:10;;;;;;;6.97;3.63;;;2.50;99.90;;;;;;5057417;28;20525;-73
2021/01/19 12:13:07;;;;;;;10.93;5.07;;;2.50;99.90;;;;;;5039869;28;20953;-74
2021/01/19 12:15:35;;;;;;;6.90;4.40;;;2.50;99.90;;;;;;5059242;28;20501;-73
2021/01/19 12:18:04;;;;;;;9.27;5.37;;;2.50;99.90;;;;;;5055102;28;20485;-75
2021/01/19 12:20:33;;;;;;;8.17;4.83;;;2.40;99.90;;;;;;5042145;28;20453;-72
2021/01/19 12:23:01;;;;;;;7.43;5.30;;;2.40;99.90;;;;;;5075631;28;21053;-73
2021/01/19 12:25:29;;;;;;;7.83;4.93;;;2.50;99.90;;;;;;5076531;28;20453;-73
2021/01/19 12:27:56;;;;;;;8.87;5.87;;;2.50;99.90;;;;;;5078537;28;20438;-73
2021/01/19 12:30:25;;;;;;;10.10;5.70;;;2.40;99.90;;;;;;5056284;28;21570;-73
2021/01/19 12:32:52;;;;;;;6.33;4.73;;;2.30;99.90;;;;;;5038574;28;20988;-76
2021/01/19 12:35:23;;;;;;;11.77;7.73;;;2.20;99.90;;;;;;5039661;28;20449;-75
2021/01/19 12:37:54;;;;;;;8.77;6.50;;;2.20;99.90;;;;;;5038783;28;21039;-73
2021/01/19 12:40:22;;;;;;;7.67;6.03;;;2.10;99.90;;;;;;5056128;28;20473;-72
2021/01/19 12:42:51;;;;;;;13.00;7.30;;;2.00;99.90;;;;;;5055145;28;20496;-74
2021/01/19 12:45:19;;;;;;;8.47;6.13;;;2.00;99.90;;;;;;5039021;28;20491;-73
2021/01/19 12:47:49;;;;;;;9.37;6.53;;;2.00;99.90;;;;;;5055959;28;20477;-73
2021/01/19 12:50:19;;;;;;;13.93;6.53;;;2.00;99.90;;;;;;5037074;28;20466;-71
2021/01/19 12:52:47;;;;;;;13.07;9.10;;;1.80;99.90;;;;;;5053366;28;20465;-72
2021/01/19 12:55:16;;;;;;;10.30;6.47;;;1.70;99.90;;;;;;5056506;28;20493;-73
2021/01/19 12:57:44;;;;;;;13.57;6.70;;;1.80;99.90;;;;;;5054836;28;20457;-73
2021/01/19 13:00:12;;;;;;;13.70;6.93;;;1.70;99.90;;;;;;5035928;28;20465;-72
2021/01/19 13:02:40;;;;;;;9.20;6.93;;;1.70;99.90;;;;;;5053335;28;20549;-73
2021/01/19 13:05:12;;;;;;;9.83;6.20;;;1.70;99.90;;;;;;5054873;28;20467;-73
2021/01/19 13:07:40;;;;;;;12.33;7.03;;;1.70;99.90;;;;;;5052195;28;21613;-73
2021/01/19 13:10:09;;;;;;;9.87;5.73;;;1.70;99.90;;;;;;5051106;28;20532;-72
2021/01/19 13:12:38;;;;;;;8.17;6.13;;;1.60;99.90;;;;;;5068411;28;20510;-73
2021/01/19 13:15:08;;;;;;;9.20;5.77;;;1.70;99.90;;;;;;5035881;28;21023;-72
2021/01/19 13:17:37;;;;;;;7.30;6.03;;;1.90;99.90;;;;;;5049863;28;20564;-73
2021/01/19 13:20:07;;;;;;;9.77;6.70;;;1.80;99.90;;;;;;5033104;28;20488;-74
2021/01/19 13:22:35;;;;;;;10.13;6.93;;;1.90;99.90;;;;;;5033906;28;20566;-73
2021/01/19 13:25:04;;;;;;;10.23;6.93;;;1.70;99.90;;;;;;5032900;28;20465;-73
2021/01/19 13:27:32;;;;;;;8.73;6.43;;;1.60;99.90;;;;;;5048926;28;20454;-72